Time;durP1;ratioP1;P1;durP2;ratioP2;P2;SDS_P1;SDS_P2;PMS_P1;PMS_P2;Temp;Humidity;BMP_temperature;BMP_pressure;BME280_temperature;BME280_humidity;BME280_pressure;Samples;Min_cycle;Max_cycle;Signal;HPM_P1;HPM_P2
2022/04/25 00:02:02;;;;;;;28.67;23.50;;;;;;;7.44;100.00;94580.34;5023962;28;20648;-79
2022/04/25 00:04:27;;;;;;;29.83;23.87;;;;;;;7.48;100.00;94582.47;5007254;28;20183;-80
2022/04/25 00:06:52;;;;;;;28.87;23.63;;;;;;;7.41;100.00;94581.44;5007883;28;20578;-79
2022/04/25 00:09:18;;;;;;;29.13;24.47;;;;;;;7.46;100.00;94578.41;5007841;28;20691;-80
2022/04/25 00:11:43;;;;;;;27.20;23.30;;;;;;;7.43;100.00;94579.53;5007237;28;20180;-80
2022/04/25 00:14:08;;;;;;;29.53;24.13;;;;;;;7.38;100.00;94577.41;5008314;28;20193;-80
2022/04/25 00:16:34;;;;;;;29.57;23.37;;;;;;;7.35;100.00;94582.06;4988520;28;20185;-81
2022/04/25 00:19:00;;;;;;;28.73;24.70;;;;;;;7.36;100.00;94578.53;4990381;28;20737;-80
2022/04/25 00:21:26;;;;;;;27.13;22.67;;;;;;;7.36;100.00;94584.50;4988331;28;20185;-81
2022/04/25 00:23:51;;;;;;;28.67;24.20;;;;;;;7.29;100.00;94580.88;4972496;28;20180;-80
2022/04/25 00:26:17;;;;;;;31.10;23.73;;;;;;;7.24;100.00;94580.50;4972294;28;20200;-79
2022/04/25 00:28:42;;;;;;;29.20;24.17;;;;;;;7.20;100.00;94584.38;4972500;28;20728;-80
2022/04/25 00:31:07;;;;;;;30.20;24.73;;;;;;;7.21;100.00;94590.34;4971752;28;20192;-80
2022/04/25 00:33:33;;;;;;;29.27;23.97;;;;;;;7.16;100.00;94590.00;4973299;28;20223;-80
2022/04/25 00:35:58;;;;;;;27.57;22.97;;;;;;;7.15;100.00;94591.75;5004925;28;20201;-80
2022/04/25 00:38:23;;;;;;;30.27;25.67;;;;;;;7.07;100.00;94583.97;4972395;28;20211;-79
2022/04/25 00:40:48;;;;;;;30.63;25.40;;;;;;;7.03;100.00;94582.63;4972133;28;20184;-81
2022/04/25 00:43:14;;;;;;;31.37;24.90;;;;;;;6.97;100.00;94593.53;4988098;28;20203;-80
2022/04/25 00:45:39;;;;;;;32.37;25.10;;;;;;;6.98;100.00;94592.56;4973855;28;20596;-80
2022/04/25 00:48:04;;;;;;;32.17;26.27;;;;;;;6.98;100.00;94595.16;4994337;28;20280;-79
2022/04/25 00:50:30;;;;;;;32.03;26.37;;;;;;;6.86;100.00;94584.25;4999435;28;20340;-81
2022/04/25 00:52:57;;;;;;;28.50;24.23;;;;;;;7.00;100.00;94588.91;4973536;28;20263;-80
2022/04/25 00:55:22;;;;;;;29.87;25.50;;;;;;;6.90;100.00;94593.34;4990068;28;20736;-81
2022/04/25 00:57:48;;;;;;;30.33;24.47;;;;;;;6.85;100.00;94592.97;4974029;28;20199;-81
2022/04/25 01:00:14;;;;;;;32.77;26.67;;;;;;;6.83;100.00;94592.31;4973959;28;20263;-82
2022/04/25 01:02:40;;;;;;;32.53;26.23;;;;;;;6.78;100.00;94587.56;4974249;28;20275;-81
2022/04/25 01:05:06;;;;;;;34.87;26.13;;;;;;;6.74;100.00;94583.69;4974552;28;20279;-81
2022/04/25 01:07:34;;;;;;;32.27;25.87;;;;;;;6.69;100.00;94582.50;4996504;28;20223;-81
2022/04/25 01:10:00;;;;;;;29.63;25.27;;;;;;;6.63;100.00;94588.25;4994249;28;20652;-81
2022/04/25 01:12:26;;;;;;;32.10;25.97;;;;;;;6.63;100.00;94580.53;4993740;28;20276;-81
2022/04/25 01:15:03;;;;;;;32.17;26.90;;;;;;;6.66;100.00;94586.19;4992980;28;20184;-81
2022/04/25 01:17:28;;;;;;;34.00;26.83;;;;;;;6.66;100.00;94585.38;4994901;28;20207;-81
2022/04/25 01:19:53;;;;;;;32.90;25.37;;;;;;;6.70;100.00;94584.13;4995122;28;20644;-80
2022/04/25 01:22:22;;;;;;;35.53;27.67;;;;;;;6.68;100.00;94589.41;4994555;28;20187;-79
2022/04/25 01:27:32;;;;;;;31.47;26.23;;;;;;;6.63;100.00;94585.69;4995654;28;20218;-81
2022/04/25 01:29:57;;;;;;;32.73;26.83;;;;;;;6.60;100.00;94585.97;4996516;28;20176;-81
2022/04/25 01:32:24;;;;;;;31.03;26.00;;;;;;;6.52;100.00;94589.25;4979716;28;20175;-81
2022/04/25 01:34:49;;;;;;;31.50;26.03;;;;;;;6.51;100.00;94588.44;4979684;28;20188;-80
2022/04/25 01:37:16;;;;;;;33.30;26.77;;;;;;;6.45;100.00;94589.06;4996170;28;20198;-80
2022/04/25 01:39:44;;;;;;;34.07;27.10;;;;;;;6.47;100.00;94594.88;5012496;28;20652;-81
2022/04/25 01:42:10;;;;;;;33.23;27.37;;;;;;;6.56;100.00;94600.94;4995427;28;20172;-79
2022/04/25 01:44:35;;;;;;;33.00;27.20;;;;;;;6.60;100.00;94601.44;4978681;28;20218;-80
2022/04/25 01:47:01;;;;;;;33.77;25.67;;;;;;;6.61;100.00;94598.69;4978327;28;20325;-80
2022/04/25 01:49:27;;;;;;;31.97;25.20;;;;;;;6.71;100.00;94593.47;4994317;28;20251;-81
2022/04/25 01:51:53;;;;;;;35.30;27.83;;;;;;;6.73;100.00;94591.56;4993994;28;20172;-80
2022/04/25 01:54:24;;;;;;;34.63;27.27;;;;;;;6.77;100.00;94592.88;5010846;28;20175;-80
2022/04/25 01:56:49;;;;;;;35.80;26.83;;;;;;;6.76;100.00;94601.59;4994361;28;20652;-80
2022/04/25 01:59:14;;;;;;;35.70;28.00;;;;;;;6.75;100.00;94590.47;4994432;28;20282;-81
2022/04/25 02:01:40;;;;;;;35.03;26.80;;;;;;;6.77;100.00;94593.69;4994025;28;20643;-81
2022/04/25 02:04:05;;;;;;;33.13;26.90;;;;;;;6.75;100.00;94597.41;4994076;28;20223;-81
2022/04/25 02:06:30;;;;;;;31.67;25.20;;;;;;;6.79;100.00;94601.28;4994281;28;20200;-80
2022/04/25 02:08:55;;;;;;;33.37;25.97;;;;;;;6.77;100.00;94601.44;4977772;28;20203;-80
2022/04/25 02:11:22;;;;;;;33.17;26.70;;;;;;;6.82;100.00;94601.00;4993841;28;20655;-81
2022/04/25 02:13:51;;;;;;;31.87;26.33;;;;;;;6.82;100.00;94603.59;4977825;28;20267;-78
2022/04/25 02:16:18;;;;;;;33.47;25.27;;;;;;;6.73;100.00;94607.06;4977938;28;20187;-78
2022/04/25 02:18:43;;;;;;;33.60;26.80;;;;;;;6.73;100.00;94607.88;4977421;28;20274;-80
2022/04/25 02:21:09;;;;;;;31.17;24.97;;;;;;;6.69;100.00;94610.88;4977567;28;20188;-79
2022/04/25 02:23:34;;;;;;;32.77;26.87;;;;;;;6.58;100.00;94604.16;4993950;28;20191;-80
2022/04/25 02:26:00;;;;;;;31.40;25.43;;;;;;;6.55;100.00;94603.66;4978061;28;20184;-79
2022/04/25 02:28:25;;;;;;;30.00;24.57;;;;;;;6.46;100.00;94601.00;4995502;28;20228;-81
2022/04/25 02:30:52;;;;;;;30.00;25.13;;;;;;;6.36;100.00;94600.25;4995560;28;20640;-80
2022/04/25 02:33:18;;;;;;;30.70;25.83;;;;;;;6.28;100.00;94605.31;4977097;28;20183;-80
2022/04/25 02:35:44;;;;;;;33.73;27.17;;;;;;;6.21;100.00;94607.66;4977821;28;20184;-80
2022/04/25 02:38:09;;;;;;;30.03;25.27;;;;;;;6.15;100.00;94610.78;4994028;28;20195;-79
2022/04/25 02:40:34;;;;;;;33.60;25.57;;;;;;;6.12;100.00;94615.44;4993967;28;20234;-80
2022/04/25 02:42:59;;;;;;;29.67;24.90;;;;;;;6.07;100.00;94612.47;5009551;28;20176;-80
2022/04/25 02:45:25;;;;;;;29.50;24.40;;;;;;;6.06;100.00;94616.00;4977051;28;20680;-80
2022/04/25 02:47:50;;;;;;;31.67;25.67;;;;;;;6.06;100.00;94616.00;4993013;28;20239;-80
2022/04/25 02:50:16;;;;;;;31.27;25.73;;;;;;;6.03;100.00;94618.88;4993360;28;20601;-81
2022/04/25 02:52:41;;;;;;;31.60;24.77;;;;;;;6.04;100.00;94623.88;4992437;28;20266;-79
2022/04/25 02:55:07;;;;;;;32.77;26.87;;;;;;;6.04;100.00;94628.22;4992959;28;20176;-80
2022/04/25 02:57:33;;;;;;;32.43;25.73;;;;;;;6.03;100.00;94627.41;4994440;28;20714;-79
2022/04/25 02:59:58;;;;;;;32.73;25.90;;;;;;;6.01;100.00;94620.75;4993005;28;20172;-79
2022/04/25 03:02:24;;;;;;;31.87;25.53;;;;;;;6.02;100.00;94624.97;4992080;28;20214;-80
2022/04/25 03:04:49;;;;;;;34.63;26.53;;;;;;;6.02;100.00;94622.41;5009044;28;20176;-79
2022/04/25 03:07:14;;;;;;;33.83;26.50;;;;;;;5.99;100.00;94623.47;4976493;28;20583;-80
2022/04/25 03:09:40;;;;;;;35.90;27.23;;;;;;;6.02;100.00;94624.97;5009119;28;20187;-80
2022/04/25 03:12:05;;;;;;;36.33;28.77;;;;;;;6.08;100.00;94627.78;4992141;28;20183;-79
2022/04/25 03:14:31;;;;;;;32.03;26.30;;;;;;;6.13;100.00;94619.63;4976996;28;20180;-79
2022/04/25 03:16:56;;;;;;;36.83;28.60;;;;;;;6.15;100.00;94617.72;4976709;28;20176;-79
2022/04/25 03:19:21;;;;;;;34.97;26.93;;;;;;;6.19;100.00;94619.06;4992515;28;20199;-80
2022/04/25 03:21:47;;;;;;;37.10;27.27;;;;;;;6.19;100.00;94621.66;4976045;28;20183;-79
2022/04/25 03:24:12;;;;;;;35.90;27.47;;;;;;;6.16;100.00;94624.50;4992918;28;20183;-80
2022/04/25 03:26:39;;;;;;;34.23;26.97;;;;;;;6.14;100.00;94622.06;4992680;28;20211;-80
2022/04/25 03:29:04;;;;;;;34.77;26.83;;;;;;;6.16;100.00;94625.28;4991851;28;20223;-79
2022/04/25 03:31:30;;;;;;;33.63;26.80;;;;;;;6.11;100.00;94626.69;4993171;28;20168;-79
2022/04/25 03:33:55;;;;;;;34.60;26.93;;;;;;;6.07;100.00;94620.19;4976087;28;20196;-79
2022/04/25 03:36:20;;;;;;;35.53;27.83;;;;;;;6.06;100.00;94618.56;4992314;28;20551;-79
2022/04/25 03:38:46;;;;;;;36.67;27.17;;;;;;;6.07;100.00;94622.75;4992160;28;20207;-79
2022/04/25 03:41:11;;;;;;;36.10;27.20;;;;;;;6.05;100.00;94622.91;4992734;28;20210;-79
2022/04/25 03:43:37;;;;;;;35.20;27.27;;;;;;;6.08;100.00;94625.19;4976116;28;20184;-81
2022/04/25 03:46:02;;;;;;;36.83;26.37;;;;;;;6.06;100.00;94632.25;4975972;28;20211;-79
2022/04/25 03:48:27;;;;;;;36.80;27.73;;;;;;;6.08;100.00;94632.13;4976150;28;20211;-79
2022/04/25 03:50:53;;;;;;;36.10;27.07;;;;;;;6.09;100.00;94636.31;4992286;28;20215;-80
2022/04/25 03:53:18;;;;;;;36.77;27.33;;;;;;;6.09;100.00;94644.03;4975935;28;20234;-79
2022/04/25 03:58:28;;;;;;;38.07;29.00;;;;;;;6.10;100.00;94637.97;4992180;28;20215;-79
2022/04/25 04:00:53;;;;;;;37.97;28.57;;;;;;;6.10;100.00;94635.38;4976254;28;20176;-78
2022/04/25 04:03:19;;;;;;;37.03;28.00;;;;;;;6.11;100.00;94642.16;4975598;28;20571;-81
2022/04/25 04:05:45;;;;;;;34.10;26.87;;;;;;;6.10;100.00;94650.84;4992472;28;20274;-80
2022/04/25 04:08:11;;;;;;;35.87;27.67;;;;;;;6.07;100.00;94651.94;4975834;28;20211;-79
2022/04/25 04:10:36;;;;;;;33.63;26.30;;;;;;;6.10;100.00;94653.44;4976479;28;20198;-79
2022/04/25 04:13:02;;;;;;;33.03;26.03;;;;;;;6.12;100.00;94654.09;4975318;28;20187;-80
2022/04/25 04:15:27;;;;;;;36.87;28.33;;;;;;;6.14;100.00;94655.56;4993661;28;20187;-80
2022/04/25 04:17:52;;;;;;;35.97;27.93;;;;;;;6.14;100.00;94663.31;4991984;28;20200;-79
2022/04/25 04:20:17;;;;;;;36.03;28.70;;;;;;;6.18;100.00;94671.56;4975500;28;20206;-78
2022/04/25 04:22:43;;;;;;;36.90;29.10;;;;;;;6.27;100.00;94667.31;4975167;28;20184;-80
2022/04/25 04:25:12;;;;;;;34.27;27.97;;;;;;;6.33;100.00;94667.56;4992261;28;20176;-79
2022/04/25 04:27:39;;;;;;;32.67;26.43;;;;;;;6.26;100.00;94679.38;4975238;28;20216;-80
2022/04/25 04:30:07;;;;;;;36.30;25.90;;;;;;;5.82;100.00;94680.88;4969391;28;20207;-79
2022/04/25 04:32:33;;;;;;;32.07;24.70;;;;;;;5.87;100.00;94678.69;4972398;28;20188;-79
2022/04/25 04:35:00;;;;;;;30.47;24.03;;;;;;;6.04;100.00;94690.06;4989366;28;20195;-79
2022/04/25 04:37:26;;;;;;;31.00;24.47;;;;;;;6.13;100.00;94682.31;5007633;28;20183;-80
2022/04/25 04:40:28;;;;;;;31.60;25.20;;;;;;;6.13;100.00;94684.06;4975136;28;20279;-79
2022/04/25 04:42:38;;;;;;;33.37;25.33;;;;;;;6.06;100.00;94680.44;4991118;28;20221;-78
2022/04/25 04:45:04;;;;;;;28.53;23.17;;;;;;;6.13;100.00;94691.81;5006591;28;20899;-80
2022/04/25 04:47:34;;;;;;;33.57;25.77;;;;;;;6.19;100.00;94696.41;5007349;28;20230;-79
2022/04/25 04:49:59;;;;;;;31.73;24.73;;;;;;;6.22;100.00;94696.09;5007629;28;20227;-80
2022/04/25 04:52:25;;;;;;;31.70;25.47;;;;;;;6.20;100.00;94698.03;5013521;28;20183;-79
2022/04/25 04:54:50;;;;;;;33.93;26.60;;;;;;;6.19;100.00;94696.41;5014923;28;20198;-82
2022/04/25 04:57:15;;;;;;;33.67;26.10;;;;;;;6.21;100.00;94702.22;4996207;28;20242;-79
2022/04/25 04:59:41;;;;;;;32.47;26.70;;;;;;;6.20;100.00;94700.59;5028899;28;20187;-78
2022/04/25 05:02:06;;;;;;;32.63;25.20;;;;;;;6.26;100.00;94715.50;5030697;28;20234;-81
2022/04/25 05:04:31;;;;;;;30.43;24.47;;;;;;;6.34;100.00;94715.59;5015024;28;20179;-80
2022/04/25 05:06:57;;;;;;;31.37;25.30;;;;;;;6.41;100.00;94711.50;5014936;28;20261;-80
2022/04/25 05:09:22;;;;;;;30.20;24.17;;;;;;;6.40;100.00;94716.81;4997699;28;20539;-80
2022/04/25 05:11:47;;;;;;;33.60;26.00;;;;;;;6.39;100.00;94721.16;4997878;28;20198;-80
2022/04/25 05:14:14;;;;;;;32.03;26.30;;;;;;;6.37;100.00;94720.47;4998355;28;20206;-79
2022/04/25 05:16:40;;;;;;;31.10;24.23;;;;;;;6.44;100.00;94724.09;5014463;28;20183;-83
2022/04/25 05:19:05;;;;;;;31.53;25.00;;;;;;;6.51;100.00;94727.72;4998331;28;20211;-82
2022/04/25 05:21:30;;;;;;;31.73;26.27;;;;;;;6.49;100.00;94731.41;4997765;28;20199;-83
2022/04/25 05:23:56;;;;;;;30.43;25.20;;;;;;;6.53;100.00;94730.16;4999524;28;20203;-82
2022/04/25 05:26:21;;;;;;;30.90;24.73;;;;;;;6.66;100.00;94740.16;5014925;28;20184;-83
2022/04/25 05:28:46;;;;;;;30.87;23.63;;;;;;;6.61;100.00;94739.78;5016023;28;20207;-83
2022/04/25 05:31:12;;;;;;;29.83;25.20;;;;;;;6.61;100.00;94742.34;4995611;28;20184;-81
2022/04/25 05:33:37;;;;;;;30.07;24.93;;;;;;;6.68;100.00;94743.41;4981584;28;20214;-84
2022/04/25 05:36:02;;;;;;;32.57;24.97;;;;;;;6.68;100.00;94738.25;4981999;28;20600;-81
2022/04/25 05:38:27;;;;;;;32.30;25.93;;;;;;;6.69;100.00;94739.88;4993745;28;20208;-82
2022/04/25 05:40:54;;;;;;;31.63;25.83;;;;;;;6.74;100.00;94753.16;4995935;28;20679;-79
2022/04/25 05:43:19;;;;;;;32.13;25.00;;;;;;;6.76;100.00;94749.47;4990259;28;20183;-82
2022/04/25 05:45:46;;;;;;;31.33;26.00;;;;;;;6.76;100.00;94749.47;5027109;28;20211;-83
2022/04/25 05:53:39;;;;;;;31.67;25.43;;;;;;;6.77;100.00;94758.03;5013206;28;20325;-82
2022/04/25 05:56:05;;;;;;;29.57;25.23;;;;;;;6.75;100.00;94752.22;4996131;28;20191;-82
2022/04/25 05:58:30;;;;;;;29.73;24.10;;;;;;;6.97;100.00;94756.97;5023855;28;20694;-82
2022/04/25 06:00:55;;;;;;;30.27;24.27;;;;;;;7.12;100.00;94743.56;5015111;28;20194;-83
2022/04/25 06:03:21;;;;;;;27.87;23.33;;;;;;;7.33;100.00;94750.09;4994741;28;20183;-81
2022/04/25 06:05:46;;;;;;;28.30;24.70;;;;;;;7.58;100.00;94745.13;5014288;28;20209;-83
2022/04/25 06:08:11;;;;;;;30.17;23.90;;;;;;;8.00;100.00;94753.06;5007903;28;20726;-83
2022/04/25 06:10:37;;;;;;;29.33;22.90;;;;;;;8.19;100.00;94758.03;5011165;28;20632;-82
2022/04/25 06:13:02;;;;;;;28.97;23.93;;;;;;;8.46;100.00;94764.03;5009626;28;20253;-83
2022/04/25 06:15:29;;;;;;;28.03;23.67;;;;;;;8.46;100.00;94754.50;4993638;28;20195;-81
2022/04/25 06:17:55;;;;;;;26.40;23.03;;;;;;;8.44;100.00;94761.59;4993904;28;20575;-82
2022/04/25 06:20:23;;;;;;;26.77;23.87;;;;;;;8.50;100.00;94762.78;4993793;28;20386;-83
2022/04/25 06:22:53;;;;;;;30.93;25.50;;;;;;;8.70;100.00;94758.19;4993180;28;20188;-84
2022/04/25 06:25:19;;;;;;;29.00;24.57;;;;;;;8.98;100.00;94769.94;5009534;28;20656;-83
2022/04/25 06:27:44;;;;;;;26.23;23.43;;;;;;;8.94;98.60;94767.81;5010270;28;20314;-83
2022/04/25 06:30:10;;;;;;;23.93;21.37;;;;;;;9.12;99.05;94775.50;4995033;28;20553;-84
2022/04/25 06:32:36;;;;;;;23.57;19.80;;;;;;;9.11;98.12;94773.88;4994224;28;20575;-82
2022/04/25 06:35:02;;;;;;;22.17;19.40;;;;;;;9.33;97.76;94766.31;5011048;28;20215;-81
2022/04/25 06:37:27;;;;;;;22.70;20.30;;;;;;;9.52;97.09;94774.75;4974705;28;20216;-82
2022/04/25 06:39:52;;;;;;;21.73;18.77;;;;;;;9.78;94.78;94780.63;4984706;28;20192;-82
2022/04/25 06:42:17;;;;;;;19.97;17.73;;;;;;;10.46;93.08;94775.09;4977192;28;20257;-81
2022/04/25 06:44:43;;;;;;;19.17;17.27;;;;;;;10.30;89.77;94774.31;4993631;28;20218;-84
2022/04/25 06:47:08;;;;;;;19.70;17.70;;;;;;;9.93;91.34;94778.22;4993056;28;20227;-82
2022/04/25 06:49:33;;;;;;;20.40;17.60;;;;;;;10.00;92.87;94773.19;4990107;28;20677;-81
2022/04/25 06:52:00;;;;;;;19.67;17.57;;;;;;;10.40;91.70;94782.72;4985229;28;20184;-81
2022/04/25 06:54:26;;;;;;;20.43;18.40;;;;;;;9.79;92.57;94782.25;4990639;28;20202;-82
2022/04/25 06:56:53;;;;;;;20.63;18.43;;;;;;;9.25;93.63;94787.00;5029642;28;20206;-80
2022/04/25 06:59:19;;;;;;;22.47;19.47;;;;;;;9.27;93.64;94782.47;4991127;28;20247;-81
2022/04/25 07:01:45;;;;;;;20.90;18.80;;;;;;;9.11;94.18;94789.41;4967673;28;20191;-82
2022/04/25 07:04:13;;;;;;;21.43;19.13;;;;;;;9.03;94.07;94790.19;4986446;28;20186;-82
2022/04/25 07:06:39;;;;;;;21.93;19.73;;;;;;;8.88;93.66;94789.16;5008991;28;20203;-81
2022/04/25 07:09:05;;;;;;;21.70;19.47;;;;;;;9.04;93.10;94790.03;4992429;28;20273;-82
2022/04/25 07:11:30;;;;;;;22.00;19.57;;;;;;;9.14;93.34;94789.09;4989110;28;20192;-83
2022/04/25 07:13:56;;;;;;;20.73;18.57;;;;;;;9.44;93.17;94779.94;4983276;28;20188;-82
2022/04/25 07:16:24;;;;;;;21.40;18.20;;;;;;;9.52;93.40;94793.72;4992638;28;20267;-82
2022/04/25 07:18:49;;;;;;;21.83;19.63;;;;;;;9.66;92.66;94789.69;5008874;28;20581;-83
2022/04/25 07:29:26;;;;;;;21.73;18.83;;;;;;;11.10;86.66;94797.63;5019683;28;20622;-81
2022/04/25 07:31:52;;;;;;;20.20;18.10;;;;;;;11.06;84.85;94792.78;5008432;28;20188;-83
2022/04/25 07:34:22;;;;;;;19.40;17.40;;;;;;;11.24;83.18;94799.53;5005184;28;20196;-81
2022/04/25 07:36:54;;;;;;;19.67;17.53;;;;;;;10.56;85.75;94797.47;4990298;28;20200;-82
2022/04/25 07:39:22;;;;;;;19.40;17.20;;;;;;;11.11;84.39;94794.84;4992233;28;20290;-81
2022/04/25 07:41:49;;;;;;;17.67;15.77;;;;;;;10.97;83.29;94801.59;4975908;28;20186;-82
2022/04/25 07:44:14;;;;;;;20.03;17.97;;;;;;;11.21;84.98;94797.25;4993032;28;20625;-83
2022/04/25 07:46:40;;;;;;;19.77;17.67;;;;;;;11.76;82.70;94796.31;4976141;28;20258;-81
2022/04/25 07:49:09;;;;;;;18.30;16.40;;;;;;;11.85;82.09;94801.31;4992448;28;20203;-83
2022/04/25 07:51:35;;;;;;;19.10;17.10;;;;;;;11.59;80.85;94804.22;5012024;28;20186;-83
2022/04/25 07:54:00;;;;;;;17.80;15.87;;;;;;;11.81;80.47;94809.63;5015983;28;20190;-81
2022/04/25 07:56:26;;;;;;;18.60;16.53;;;;;;;11.38;83.22;94803.19;5011894;28;20636;-82
2022/04/25 07:58:51;;;;;;;18.73;16.23;;;;;;;11.99;81.38;94797.13;4990185;28;20203;-82
2022/04/25 08:01:17;;;;;;;17.70;15.87;;;;;;;12.10;75.42;94809.75;4975698;28;20184;-82
2022/04/25 08:03:42;;;;;;;18.50;16.60;;;;;;;12.14;78.57;94811.00;4989066;28;20240;-82
2022/04/25 08:06:07;;;;;;;17.90;15.97;;;;;;;11.35;80.26;94809.53;4984133;28;20234;-81
2022/04/25 08:08:32;;;;;;;17.60;15.70;;;;;;;11.39;82.06;94815.19;4988069;28;20223;-81
2022/04/25 08:10:58;;;;;;;19.00;17.07;;;;;;;10.98;84.15;94817.97;4989877;28;20625;-82
2022/04/25 08:18:51;;;;;;;19.83;17.83;;;;;;;10.44;86.42;94826.38;4991927;28;20254;-82
2022/04/25 08:21:17;;;;;;;19.03;17.07;;;;;;;10.46;84.85;94829.63;4991180;28;20203;-82
2022/04/25 08:23:45;;;;;;;19.37;16.50;;;;;;;10.50;85.55;94824.88;4991646;28;20191;-82
2022/04/25 08:26:10;;;;;;;18.37;16.47;;;;;;;10.57;86.35;94827.66;4983940;28;20183;-82
2022/04/25 08:28:36;;;;;;;18.00;16.20;;;;;;;10.73;87.08;94833.63;4961775;28;20295;-82
2022/04/25 08:31:01;;;;;;;20.33;18.10;;;;;;;10.73;87.84;94838.00;5007204;28;20196;-83
2022/04/25 08:33:26;;;;;;;19.27;17.37;;;;;;;10.66;86.30;94847.44;4992520;28;20656;-83
2022/04/25 08:35:52;;;;;;;20.97;17.67;;;;;;;10.61;88.36;94847.13;5008822;28;20187;-84
2022/04/25 08:38:17;;;;;;;19.07;17.03;;;;;;;10.67;87.37;94849.03;4992750;28;20489;-83
2022/04/25 08:40:44;;;;;;;20.63;17.40;;;;;;;10.49;88.71;94852.63;4991511;28;20551;-83
2022/04/25 08:43:13;;;;;;;19.80;17.73;;;;;;;10.53;89.78;94854.91;4976903;28;20191;-83
2022/04/25 08:45:39;;;;;;;20.53;18.33;;;;;;;10.64;86.96;94852.78;5001836;28;20251;-83
2022/04/25 08:48:05;;;;;;;21.67;19.37;;;;;;;10.60;88.88;94851.50;4980332;28;20700;-81
2022/04/25 08:50:32;;;;;;;18.77;16.87;;;;;;;11.17;85.08;94847.94;4987179;28;20184;-80
2022/04/25 08:52:59;;;;;;;19.27;17.10;;;;;;;11.18;86.72;94854.75;4990775;28;20192;-82
2022/04/25 08:55:26;;;;;;;19.10;17.20;;;;;;;11.40;85.74;94856.63;4975436;28;20190;-82
2022/04/25 08:57:59;;;;;;;19.03;17.13;;;;;;;11.79;82.10;94859.19;4991623;28;20652;-82
2022/04/25 09:00:25;;;;;;;16.23;14.63;;;;;;;11.95;81.07;94862.72;4975592;28;20187;-79
2022/04/25 09:02:50;;;;;;;17.97;15.87;;;;;;;12.16;80.57;94870.69;4988186;28;20196;-82
2022/04/25 09:05:16;;;;;;;16.17;14.57;;;;;;;12.72;78.29;94869.44;4991502;28;20195;-81
2022/04/25 09:07:42;;;;;;;15.97;14.33;;;;;;;12.47;77.47;94868.03;4976919;28;20902;-84
2022/04/25 09:10:09;;;;;;;17.37;15.57;;;;;;;13.11;74.58;94871.00;4998184;28;20180;-83
2022/04/25 09:12:36;;;;;;;15.33;13.73;;;;;;;12.86;74.67;94870.44;5007465;28;20629;-83
2022/04/25 09:15:01;;;;;;;16.23;14.53;;;;;;;12.52;74.66;94865.69;5004870;28;20186;-82
2022/04/25 09:17:26;;;;;;;15.67;14.03;;;;;;;12.45;75.55;94873.38;4991761;28;20189;-83
2022/04/25 09:19:52;;;;;;;17.50;14.97;;;;;;;12.75;74.42;94870.88;4990917;28;20674;-82
2022/04/25 09:22:32;;;;;;;16.97;15.17;;;;;;;12.09;76.90;94875.78;4990838;28;20197;-82
2022/04/25 09:25:24;;;;;;;16.17;14.13;;;;;;;11.93;77.11;94877.66;4993543;28;20595;-83
2022/04/25 09:28:07;;;;;;;16.63;14.93;;;;;;;11.63;78.67;94873.09;4977496;28;20241;-80
2022/04/25 09:30:32;;;;;;;15.70;13.80;;;;;;;11.39;78.37;94875.78;4993690;28;20294;-83
2022/04/25 09:32:58;;;;;;;15.33;13.53;;;;;;;11.14;77.83;94879.47;5008118;28;20203;-83
2022/04/25 09:35:34;;;;;;;15.53;13.93;;;;;;;11.56;79.61;94890.34;4988528;28;20586;-83
2022/04/25 09:38:04;;;;;;;17.33;15.63;;;;;;;11.43;80.39;94894.47;4983853;28;20206;-83
2022/04/25 09:40:32;;;;;;;16.00;14.33;;;;;;;11.31;82.75;94891.44;4998611;28;20184;-83
2022/04/25 09:43:08;;;;;;;17.47;15.77;;;;;;;11.17;86.14;94882.53;5009164;28;20215;-83
2022/04/25 09:45:35;;;;;;;17.27;15.47;;;;;;;11.19;84.35;94888.38;5010702;28;20274;-82
2022/04/25 09:48:01;;;;;;;17.33;15.63;;;;;;;11.22;86.90;94892.41;4975022;28;20251;-81
2022/04/25 09:50:29;;;;;;;18.93;16.93;;;;;;;11.44;86.21;94886.50;5012509;28;20181;-84
2022/04/25 09:52:59;;;;;;;17.10;15.40;;;;;;;11.91;82.43;94889.06;4992939;28;20644;-83
2022/04/25 09:55:26;;;;;;;17.30;15.27;;;;;;;11.71;82.99;94889.63;5023034;28;20184;-84
2022/04/25 09:57:52;;;;;;;16.57;14.97;;;;;;;11.20;84.77;94884.78;4988144;28;20200;-82
2022/04/25 10:00:37;;;;;;;16.67;14.97;;;;;;;11.21;86.58;94891.63;5012059;28;20207;-82
2022/04/25 10:03:04;;;;;;;16.93;14.47;;;;;;;10.67;84.42;94894.00;4993200;28;20183;-83
2022/04/25 10:05:45;;;;;;;17.33;15.57;;;;;;;10.73;86.59;94892.53;5009642;28;20180;-84
2022/04/25 10:08:11;;;;;;;18.20;16.20;;;;;;;10.37;87.79;94894.66;5007835;28;20215;-81
2022/04/25 10:10:50;;;;;;;18.70;16.80;;;;;;;10.33;90.18;94896.75;4978732;28;20191;-82
2022/04/25 10:13:15;;;;;;;16.77;15.10;;;;;;;10.18;91.97;94899.16;4962527;28;20667;-82
2022/04/25 10:15:42;;;;;;;18.27;16.40;;;;;;;10.33;92.57;94896.75;4993721;28;20258;-83
2022/04/25 10:18:09;;;;;;;18.77;15.90;;;;;;;10.14;94.50;94899.63;4992573;28;20206;-81
2022/04/25 10:20:36;;;;;;;17.83;15.93;;;;;;;9.94;95.68;94905.13;4992717;28;20242;-80
2022/04/25 10:23:04;;;;;;;18.00;16.03;;;;;;;9.89;96.22;94904.81;4972549;28;20678;-79
2022/04/25 10:25:29;;;;;;;18.37;16.57;;;;;;;10.21;94.58;94901.44;4988971;28;20191;-81
2022/04/25 10:27:56;;;;;;;17.33;15.33;;;;;;;9.99;94.54;94914.22;5006182;28;20572;-81
2022/04/25 10:30:34;;;;;;;18.43;16.27;;;;;;;9.86;95.96;94915.47;4970019;28;20797;-80
2022/04/25 10:33:15;;;;;;;17.27;15.37;;;;;;;10.00;94.88;94913.25;4987614;28;20633;-80
2022/04/25 10:35:40;;;;;;;16.97;15.17;;;;;;;10.05;93.61;94916.97;5010918;28;20183;-80
2022/04/25 10:38:49;;;;;;;14.40;12.90;;;;;;;9.84;90.54;94921.81;5005012;28;20702;-82
2022/04/25 10:44:17;;;;;;;13.67;12.37;;;;;;;9.48;93.19;94926.38;4987471;28;20303;-81
2022/04/25 10:47:04;;;;;;;13.20;11.90;;;;;;;9.38;92.99;94930.88;4988927;28;20576;-82
2022/04/25 10:49:37;;;;;;;13.50;12.07;;;;;;;9.48;92.50;94928.97;4976413;28;20750;-79
2022/04/25 10:52:04;;;;;;;12.30;11.20;;;;;;;9.38;93.15;94928.28;5001503;28;20283;-80
2022/04/25 10:54:49;;;;;;;13.43;12.07;;;;;;;9.54;93.40;94920.56;4982830;28;20214;-80
2022/04/25 10:57:15;;;;;;;13.63;12.23;;;;;;;9.73;93.65;94919.50;5019519;28;20177;-82
2022/04/25 10:59:41;;;;;;;12.37;11.17;;;;;;;9.82;93.20;94918.56;5011121;28;20668;-79
2022/04/25 11:02:26;;;;;;;13.20;11.80;;;;;;;9.93;94.01;94926.84;4988318;28;20188;-80
2022/04/25 11:05:09;;;;;;;12.50;11.37;;;;;;;10.31;90.77;94922.06;4991736;28;20206;-80
2022/04/25 11:07:37;;;;;;;12.43;11.13;;;;;;;10.80;90.27;94918.66;4993139;28;20212;-78
2022/04/25 11:10:03;;;;;;;11.67;10.47;;;;;;;10.76;90.42;94916.38;5009317;28;20188;-79
2022/04/25 11:12:57;;;;;;;10.53;9.20;;;;;;;10.96;89.36;94924.66;4976279;28;20191;-81
2022/04/25 11:15:43;;;;;;;10.23;9.20;;;;;;;10.88;88.51;94922.06;4979151;28;20208;-81
2022/04/25 11:18:20;;;;;;;10.10;9.10;;;;;;;11.38;86.94;94933.16;4972932;28;20691;-81
2022/04/25 11:20:59;;;;;;;9.93;9.03;;;;;;;11.22;85.51;94934.84;4993343;28;20195;-81
2022/04/25 11:23:31;;;;;;;9.53;8.63;;;;;;;11.44;84.84;94940.28;4998833;28;20266;-80
2022/04/25 11:25:57;;;;;;;10.73;9.63;;;;;;;11.51;84.69;94944.66;4974393;28;20556;-80
2022/04/25 11:28:23;;;;;;;12.47;9.13;;;;;;;11.58;83.48;94956.03;4993081;28;20223;-80
2022/04/25 11:31:13;;;;;;;10.23;9.07;;;;;;;11.78;83.26;94960.81;5009552;28;20274;-79
2022/04/25 11:33:43;;;;;;;15.67;10.83;;;;;;;11.91;81.24;94967.09;5008605;28;20192;-80
2022/04/25 11:36:10;;;;;;;9.00;8.20;;;;;;;11.85;79.79;94964.41;5008721;28;20222;-80
2022/04/25 11:41:28;;;;;;;8.53;7.73;;;;;;;12.19;80.01;94954.47;4986191;28;20202;-79
2022/04/25 11:43:53;;;;;;;10.93;8.97;;;;;;;12.44;82.33;94956.91;4992545;28;20204;-80
2022/04/25 11:46:18;;;;;;;9.60;8.67;;;;;;;12.95;80.14;94960.56;5008845;28;20223;-82
2022/04/25 11:48:51;;;;;;;9.10;6.97;;;;;;;12.86;76.77;94955.59;4991904;28;20211;-79
2022/04/25 11:51:29;;;;;;;6.33;5.73;;;;;;;12.21;76.27;94961.28;4961596;28;20215;-81